sensor_id;sensor_type;location;lat;lon;timestamp;P1;durP1;ratioP1;P2;durP2;ratioP2
74777;SDS011;63298;53.164;8.610;2023-02-28T00:00:48;9.52;;;4.70;;
74777;SDS011;63298;53.164;8.610;2023-02-28T00:03:13;5.10;;;3.40;;
74777;SDS011;63298;53.164;8.610;2023-02-28T00:05:39;8.45;;;3.85;;
74777;SDS011;63298;53.164;8.610;2023-02-28T00:08:04;7.10;;;3.70;;
74777;SDS011;63298;53.164;8.610;2023-02-28T00:10:30;7.90;;;3.75;;
74777;SDS011;63298;53.164;8.610;2023-02-28T00:12:59;9.65;;;4.05;;
74777;SDS011;63298;53.164;8.610;2023-02-28T00:15:27;6.15;;;3.15;;
74777;SDS011;63298;53.164;8.610;2023-02-28T00:17:52;7.13;;;4.03;;
74777;SDS011;63298;53.164;8.610;2023-02-28T00:20:18;7.55;;;3.72;;
74777;SDS011;63298;53.164;8.610;2023-02-28T00:22:45;8.48;;;3.50;;
74777;SDS011;63298;53.164;8.610;2023-02-28T00:25:14;4.93;;;3.15;;
74777;SDS011;63298;53.164;8.610;2023-02-28T00:27:41;6.30;;;3.45;;
74777;SDS011;63298;53.164;8.610;2023-02-28T00:30:08;5.70;;;3.30;;
74777;SDS011;63298;53.164;8.610;2023-02-28T00:32:36;7.38;;;4.05;;
74777;SDS011;63298;53.164;8.610;2023-02-28T00:35:01;6.88;;;3.65;;
74777;SDS011;63298;53.164;8.610;2023-02-28T00:37:27;5.95;;;4.40;;
74777;SDS011;63298;53.164;8.610;2023-02-28T00:39:52;8.55;;;4.20;;
74777;SDS011;63298;53.164;8.610;2023-02-28T00:42:20;7.03;;;4.30;;
74777;SDS011;63298;53.164;8.610;2023-02-28T00:44:46;11.35;;;4.05;;
74777;SDS011;63298;53.164;8.610;2023-02-28T00:47:11;8.18;;;3.85;;
74777;SDS011;63298;53.164;8.610;2023-02-28T00:49:37;7.15;;;3.88;;
74777;SDS011;63298;53.164;8.610;2023-02-28T00:52:02;7.78;;;3.97;;
74777;SDS011;63298;53.164;8.610;2023-02-28T00:54:28;8.50;;;4.07;;
74777;SDS011;63298;53.164;8.610;2023-02-28T00:56:53;12.02;;;5.35;;
74777;SDS011;63298;53.164;8.610;2023-02-28T00:59:18;7.93;;;4.38;;
74777;SDS011;63298;53.164;8.610;2023-02-28T01:01:45;7.82;;;3.75;;
74777;SDS011;63298;53.164;8.610;2023-02-28T01:04:11;6.57;;;4.10;;
74777;SDS011;63298;53.164;8.610;2023-02-28T01:06:37;7.78;;;3.65;;
74777;SDS011;63298;53.164;8.610;2023-02-28T01:09:03;8.95;;;3.92;;
74777;SDS011;63298;53.164;8.610;2023-02-28T01:11:30;11.68;;;4.75;;
74777;SDS011;63298;53.164;8.610;2023-02-28T01:13:56;6.68;;;4.50;;
74777;SDS011;63298;53.164;8.610;2023-02-28T01:16:22;10.00;;;4.45;;
74777;SDS011;63298;53.164;8.610;2023-02-28T01:18:48;7.35;;;4.70;;
74777;SDS011;63298;53.164;8.610;2023-02-28T01:21:14;8.88;;;4.20;;
74777;SDS011;63298;53.164;8.610;2023-02-28T01:23:42;8.73;;;3.92;;
74777;SDS011;63298;53.164;8.610;2023-02-28T01:26:12;7.75;;;4.22;;
74777;SDS011;63298;53.164;8.610;2023-02-28T01:28:39;8.55;;;4.15;;
74777;SDS011;63298;53.164;8.610;2023-02-28T01:31:05;8.73;;;4.45;;
74777;SDS011;63298;53.164;8.610;2023-02-28T01:33:30;8.52;;;4.05;;
74777;SDS011;63298;53.164;8.610;2023-02-28T01:35:57;8.40;;;4.00;;
74777;SDS011;63298;53.164;8.610;2023-02-28T01:38:27;9.48;;;4.50;;
74777;SDS011;63298;53.164;8.610;2023-02-28T01:40:55;10.20;;;4.20;;
74777;SDS011;63298;53.164;8.610;2023-02-28T01:43:23;9.13;;;4.85;;
74777;SDS011;63298;53.164;8.610;2023-02-28T01:45:50;7.80;;;4.18;;
74777;SDS011;63298;53.164;8.610;2023-02-28T01:48:17;10.10;;;4.50;;
74777;SDS011;63298;53.164;8.610;2023-02-28T01:50:46;10.40;;;3.97;;
74777;SDS011;63298;53.164;8.610;2023-02-28T01:53:13;11.95;;;4.88;;
74777;SDS011;63298;53.164;8.610;2023-02-28T01:55:43;10.77;;;5.25;;
74777;SDS011;63298;53.164;8.610;2023-02-28T01:58:12;8.63;;;4.80;;
74777;SDS011;63298;53.164;8.610;2023-02-28T02:00:38;8.30;;;4.38;;
74777;SDS011;63298;53.164;8.610;2023-02-28T02:03:08;6.75;;;4.28;;
74777;SDS011;63298;53.164;8.610;2023-02-28T02:05:39;6.07;;;3.72;;
74777;SDS011;63298;53.164;8.610;2023-02-28T02:08:09;7.65;;;4.00;;
74777;SDS011;63298;53.164;8.610;2023-02-28T02:10:45;9.43;;;3.97;;
74777;SDS011;63298;53.164;8.610;2023-02-28T02:15:44;6.50;;;3.65;;
74777;SDS011;63298;53.164;8.610;2023-02-28T02:18:36;8.50;;;3.47;;
74777;SDS011;63298;53.164;8.610;2023-02-28T02:26:34;7.65;;;4.13;;
74777;SDS011;63298;53.164;8.610;2023-02-28T02:37:07;7.18;;;3.80;;
74777;SDS011;63298;53.164;8.610;2023-02-28T02:42:11;7.90;;;3.50;;
74777;SDS011;63298;53.164;8.610;2023-02-28T02:44:48;5.25;;;3.58;;
74777;SDS011;63298;53.164;8.610;2023-02-28T02:47:21;10.15;;;3.67;;
74777;SDS011;63298;53.164;8.610;2023-02-28T02:52:18;8.65;;;3.72;;
74777;SDS011;63298;53.164;8.610;2023-02-28T02:54:50;7.47;;;3.75;;
74777;SDS011;63298;53.164;8.610;2023-02-28T02:57:32;8.20;;;3.78;;
74777;SDS011;63298;53.164;8.610;2023-02-28T03:00:02;6.35;;;2.95;;
74777;SDS011;63298;53.164;8.610;2023-02-28T03:02:29;8.82;;;3.70;;
74777;SDS011;63298;53.164;8.610;2023-02-28T03:04:58;9.15;;;3.92;;
74777;SDS011;63298;53.164;8.610;2023-02-28T03:07:26;7.22;;;3.47;;
74777;SDS011;63298;53.164;8.610;2023-02-28T03:09:52;8.07;;;3.25;;
74777;SDS011;63298;53.164;8.610;2023-02-28T03:12:19;6.25;;;3.58;;
74777;SDS011;63298;53.164;8.610;2023-02-28T03:20:17;7.03;;;4.10;;
74777;SDS011;63298;53.164;8.610;2023-02-28T03:23:16;6.57;;;3.92;;
74777;SDS011;63298;53.164;8.610;2023-02-28T03:26:06;5.65;;;3.65;;
74777;SDS011;63298;53.164;8.610;2023-02-28T03:31:47;9.65;;;3.83;;
74777;SDS011;63298;53.164;8.610;2023-02-28T03:34:26;9.00;;;3.83;;
74777;SDS011;63298;53.164;8.610;2023-02-28T03:36:59;7.10;;;3.50;;
74777;SDS011;63298;53.164;8.610;2023-02-28T03:39:31;8.70;;;3.90;;
74777;SDS011;63298;53.164;8.610;2023-02-28T03:42:14;8.68;;;3.97;;
74777;SDS011;63298;53.164;8.610;2023-02-28T03:44:45;7.45;;;4.18;;
74777;SDS011;63298;53.164;8.610;2023-02-28T03:47:27;9.55;;;3.85;;
74777;SDS011;63298;53.164;8.610;2023-02-28T03:50:02;7.85;;;4.18;;
74777;SDS011;63298;53.164;8.610;2023-02-28T03:52:34;5.95;;;4.00;;
74777;SDS011;63298;53.164;8.610;2023-02-28T03:55:04;8.05;;;4.07;;
74777;SDS011;63298;53.164;8.610;2023-02-28T03:57:43;9.77;;;3.90;;
74777;SDS011;63298;53.164;8.610;2023-02-28T04:00:27;6.85;;;3.97;;
74777;SDS011;63298;53.164;8.610;2023-02-28T04:02:56;19.88;;;5.53;;
74777;SDS011;63298;53.164;8.610;2023-02-28T04:05:22;8.20;;;4.22;;
74777;SDS011;63298;53.164;8.610;2023-02-28T04:07:50;9.40;;;5.22;;
74777;SDS011;63298;53.164;8.610;2023-02-28T04:10:16;8.13;;;4.07;;
74777;SDS011;63298;53.164;8.610;2023-02-28T04:12:42;7.78;;;4.32;;
74777;SDS011;63298;53.164;8.610;2023-02-28T04:15:08;6.13;;;4.32;;
74777;SDS011;63298;53.164;8.610;2023-02-28T04:17:33;6.93;;;3.92;;
74777;SDS011;63298;53.164;8.610;2023-02-28T04:19:59;8.35;;;4.78;;
74777;SDS011;63298;53.164;8.610;2023-02-28T04:22:24;7.93;;;4.60;;
74777;SDS011;63298;53.164;8.610;2023-02-28T04:24:53;9.60;;;4.10;;
74777;SDS011;63298;53.164;8.610;2023-02-28T04:27:18;10.10;;;5.15;;
74777;SDS011;63298;53.164;8.610;2023-02-28T04:29:44;10.75;;;4.82;;
74777;SDS011;63298;53.164;8.610;2023-02-28T04:32:09;8.15;;;3.80;;
74777;SDS011;63298;53.164;8.610;2023-02-28T04:34:35;11.73;;;4.35;;
74777;SDS011;63298;53.164;8.610;2023-02-28T04:37:01;12.07;;;4.93;;
74777;SDS011;63298;53.164;8.610;2023-02-28T04:39:26;6.82;;;3.63;;
74777;SDS011;63298;53.164;8.610;2023-02-28T04:41:52;7.30;;;4.20;;
74777;SDS011;63298;53.164;8.610;2023-02-28T04:44:17;7.22;;;3.95;;
74777;SDS011;63298;53.164;8.610;2023-02-28T04:46:43;9.43;;;4.30;;
74777;SDS011;63298;53.164;8.610;2023-02-28T04:49:11;6.22;;;3.78;;
74777;SDS011;63298;53.164;8.610;2023-02-28T04:51:37;8.73;;;4.38;;
74777;SDS011;63298;53.164;8.610;2023-02-28T04:54:03;8.35;;;3.92;;
74777;SDS011;63298;53.164;8.610;2023-02-28T04:56:28;6.65;;;3.60;;
74777;SDS011;63298;53.164;8.610;2023-02-28T04:58:54;5.85;;;3.72;;
74777;SDS011;63298;53.164;8.610;2023-02-28T05:01:21;7.65;;;3.85;;
74777;SDS011;63298;53.164;8.610;2023-02-28T05:03:49;6.53;;;3.63;;
74777;SDS011;63298;53.164;8.610;2023-02-28T05:06:16;9.50;;;3.65;;
74777;SDS011;63298;53.164;8.610;2023-02-28T05:08:42;7.35;;;4.05;;
74777;SDS011;63298;53.164;8.610;2023-02-28T05:11:11;5.30;;;4.20;;
74777;SDS011;63298;53.164;8.610;2023-02-28T05:13:48;8.25;;;4.60;;
74777;SDS011;63298;53.164;8.610;2023-02-28T05:16:13;8.07;;;3.80;;
74777;SDS011;63298;53.164;8.610;2023-02-28T05:18:39;8.88;;;3.55;;
74777;SDS011;63298;53.164;8.610;2023-02-28T05:21:05;6.35;;;3.95;;
74777;SDS011;63298;53.164;8.610;2023-02-28T05:23:42;6.30;;;4.13;;
74777;SDS011;63298;53.164;8.610;2023-02-28T05:26:07;10.25;;;3.63;;
74777;SDS011;63298;53.164;8.610;2023-02-28T05:28:33;8.00;;;4.30;;
74777;SDS011;63298;53.164;8.610;2023-02-28T05:30:58;6.20;;;3.88;;
74777;SDS011;63298;53.164;8.610;2023-02-28T05:33:24;11.45;;;4.43;;
74777;SDS011;63298;53.164;8.610;2023-02-28T05:35:49;9.70;;;4.72;;
74777;SDS011;63298;53.164;8.610;2023-02-28T05:41:36;7.28;;;3.80;;
74777;SDS011;63298;53.164;8.610;2023-02-28T05:44:02;6.95;;;3.95;;
74777;SDS011;63298;53.164;8.610;2023-02-28T05:46:27;6.05;;;3.90;;
74777;SDS011;63298;53.164;8.610;2023-02-28T05:48:52;8.50;;;4.15;;
74777;SDS011;63298;53.164;8.610;2023-02-28T05:51:18;6.78;;;3.78;;
74777;SDS011;63298;53.164;8.610;2023-02-28T05:53:43;14.43;;;4.93;;
74777;SDS011;63298;53.164;8.610;2023-02-28T05:56:09;6.30;;;3.65;;
74777;SDS011;63298;53.164;8.610;2023-02-28T05:58:34;6.80;;;4.10;;
74777;SDS011;63298;53.164;8.610;2023-02-28T06:01:00;10.45;;;4.00;;
74777;SDS011;63298;53.164;8.610;2023-02-28T06:03:43;6.88;;;4.03;;
74777;SDS011;63298;53.164;8.610;2023-02-28T06:06:09;5.00;;;3.22;;
74777;SDS011;63298;53.164;8.610;2023-02-28T06:08:34;6.88;;;3.40;;
74777;SDS011;63298;53.164;8.610;2023-02-28T06:11:02;8.80;;;4.43;;
74777;SDS011;63298;53.164;8.610;2023-02-28T06:13:28;9.00;;;4.28;;
74777;SDS011;63298;53.164;8.610;2023-02-28T06:15:53;4.28;;;3.08;;
74777;SDS011;63298;53.164;8.610;2023-02-28T06:18:19;7.78;;;4.45;;
74777;SDS011;63298;53.164;8.610;2023-02-28T06:20:44;8.27;;;3.72;;
74777;SDS011;63298;53.164;8.610;2023-02-28T06:23:09;5.82;;;3.38;;
74777;SDS011;63298;53.164;8.610;2023-02-28T06:25:35;6.45;;;3.95;;
74777;SDS011;63298;53.164;8.610;2023-02-28T06:28:00;8.32;;;4.00;;
74777;SDS011;63298;53.164;8.610;2023-02-28T06:30:25;6.25;;;4.20;;
74777;SDS011;63298;53.164;8.610;2023-02-28T06:32:51;6.45;;;3.88;;
74777;SDS011;63298;53.164;8.610;2023-02-28T06:35:16;5.75;;;4.15;;
74777;SDS011;63298;53.164;8.610;2023-02-28T06:37:41;5.07;;;4.20;;
74777;SDS011;63298;53.164;8.610;2023-02-28T06:40:07;6.88;;;3.70;;
74777;SDS011;63298;53.164;8.610;2023-02-28T06:42:33;8.38;;;3.78;;
74777;SDS011;63298;53.164;8.610;2023-02-28T06:44:59;7.13;;;3.38;;
74777;SDS011;63298;53.164;8.610;2023-02-28T06:47:25;6.28;;;3.72;;
74777;SDS011;63298;53.164;8.610;2023-02-28T06:49:50;6.20;;;3.30;;
74777;SDS011;63298;53.164;8.610;2023-02-28T06:52:16;4.82;;;3.30;;
74777;SDS011;63298;53.164;8.610;2023-02-28T06:54:41;5.85;;;3.45;;
74777;SDS011;63298;53.164;8.610;2023-02-28T06:57:09;9.93;;;3.58;;
74777;SDS011;63298;53.164;8.610;2023-02-28T06:59:34;5.95;;;3.03;;
74777;SDS011;63298;53.164;8.610;2023-02-28T07:02:00;8.60;;;3.67;;
74777;SDS011;63298;53.164;8.610;2023-02-28T07:04:26;6.38;;;3.40;;
74777;SDS011;63298;53.164;8.610;2023-02-28T07:06:51;4.95;;;3.35;;
74777;SDS011;63298;53.164;8.610;2023-02-28T07:09:17;10.13;;;3.67;;
74777;SDS011;63298;53.164;8.610;2023-02-28T07:11:42;5.10;;;2.83;;
74777;SDS011;63298;53.164;8.610;2023-02-28T07:14:07;5.73;;;2.90;;
74777;SDS011;63298;53.164;8.610;2023-02-28T07:16:33;6.00;;;2.70;;
74777;SDS011;63298;53.164;8.610;2023-02-28T07:18:58;4.07;;;3.10;;
74777;SDS011;63298;53.164;8.610;2023-02-28T07:21:24;7.25;;;3.45;;
74777;SDS011;63298;53.164;8.610;2023-02-28T07:23:50;5.80;;;2.97;;
74777;SDS011;63298;53.164;8.610;2023-02-28T07:26:16;5.68;;;2.90;;
74777;SDS011;63298;53.164;8.610;2023-02-28T07:28:43;8.40;;;2.90;;
74777;SDS011;63298;53.164;8.610;2023-02-28T07:31:09;7.38;;;3.17;;
74777;SDS011;63298;53.164;8.610;2023-02-28T07:33:35;5.25;;;3.22;;
74777;SDS011;63298;53.164;8.610;2023-02-28T07:36:04;6.45;;;3.50;;
74777;SDS011;63298;53.164;8.610;2023-02-28T07:38:35;7.25;;;3.25;;
74777;SDS011;63298;53.164;8.610;2023-02-28T07:43:29;6.22;;;2.88;;
74777;SDS011;63298;53.164;8.610;2023-02-28T07:45:55;4.13;;;2.58;;
74777;SDS011;63298;53.164;8.610;2023-02-28T07:48:21;4.93;;;2.90;;
74777;SDS011;63298;53.164;8.610;2023-02-28T07:50:53;6.40;;;3.22;;
74777;SDS011;63298;53.164;8.610;2023-02-28T07:53:19;6.85;;;3.53;;
74777;SDS011;63298;53.164;8.610;2023-02-28T07:55:45;4.23;;;2.93;;
74777;SDS011;63298;53.164;8.610;2023-02-28T07:58:10;7.43;;;2.90;;
74777;SDS011;63298;53.164;8.610;2023-02-28T08:00:35;8.20;;;3.30;;
74777;SDS011;63298;53.164;8.610;2023-02-28T08:03:01;5.20;;;3.23;;
74777;SDS011;63298;53.164;8.610;2023-02-28T08:05:26;4.80;;;2.90;;
74777;SDS011;63298;53.164;8.610;2023-02-28T08:07:51;5.68;;;3.03;;
74777;SDS011;63298;53.164;8.610;2023-02-28T08:10:17;7.25;;;3.00;;
74777;SDS011;63298;53.164;8.610;2023-02-28T08:12:42;5.68;;;3.22;;
74777;SDS011;63298;53.164;8.610;2023-02-28T08:15:07;5.60;;;2.95;;
74777;SDS011;63298;53.164;8.610;2023-02-28T08:17:33;4.93;;;3.15;;
74777;SDS011;63298;53.164;8.610;2023-02-28T08:19:58;4.18;;;2.47;;
74777;SDS011;63298;53.164;8.610;2023-02-28T08:22:24;4.50;;;3.30;;
74777;SDS011;63298;53.164;8.610;2023-02-28T08:24:49;3.55;;;2.50;;
74777;SDS011;63298;53.164;8.610;2023-02-28T08:27:14;5.15;;;2.72;;
74777;SDS011;63298;53.164;8.610;2023-02-28T08:29:40;6.35;;;2.83;;
74777;SDS011;63298;53.164;8.610;2023-02-28T08:32:06;4.72;;;2.90;;
74777;SDS011;63298;53.164;8.610;2023-02-28T08:34:32;6.75;;;2.47;;
74777;SDS011;63298;53.164;8.610;2023-02-28T08:36:57;6.00;;;3.03;;
74777;SDS011;63298;53.164;8.610;2023-02-28T08:39:23;4.75;;;2.60;;
74777;SDS011;63298;53.164;8.610;2023-02-28T08:41:48;7.50;;;2.95;;
74777;SDS011;63298;53.164;8.610;2023-02-28T08:44:13;2.83;;;2.40;;
74777;SDS011;63298;53.164;8.610;2023-02-28T08:46:39;6.07;;;1.83;;
74777;SDS011;63298;53.164;8.610;2023-02-28T08:49:04;5.32;;;2.42;;
74777;SDS011;63298;53.164;8.610;2023-02-28T08:51:29;6.32;;;2.50;;
74777;SDS011;63298;53.164;8.610;2023-02-28T08:53:55;3.42;;;1.90;;
74777;SDS011;63298;53.164;8.610;2023-02-28T08:56:23;6.75;;;2.15;;
74777;SDS011;63298;53.164;8.610;2023-02-28T08:58:49;2.28;;;1.63;;
74777;SDS011;63298;53.164;8.610;2023-02-28T09:01:15;2.20;;;1.90;;
74777;SDS011;63298;53.164;8.610;2023-02-28T09:03:43;2.40;;;1.38;;
74777;SDS011;63298;53.164;8.610;2023-02-28T09:06:10;4.60;;;2.13;;
74777;SDS011;63298;53.164;8.610;2023-02-28T09:08:36;3.00;;;1.50;;
74777;SDS011;63298;53.164;8.610;2023-02-28T09:11:02;3.15;;;1.50;;
74777;SDS011;63298;53.164;8.610;2023-02-28T09:13:28;1.63;;;1.20;;
74777;SDS011;63298;53.164;8.610;2023-02-28T09:15:54;4.65;;;1.60;;
74777;SDS011;63298;53.164;8.610;2023-02-28T09:18:23;0.80;;;0.80;;
74777;SDS011;63298;53.164;8.610;2023-02-28T09:20:48;1.45;;;1.20;;
74777;SDS011;63298;53.164;8.610;2023-02-28T09:23:17;3.72;;;1.60;;
74777;SDS011;63298;53.164;8.610;2023-02-28T09:25:47;1.10;;;1.08;;
74777;SDS011;63298;53.164;8.610;2023-02-28T09:28:13;2.80;;;1.38;;
74777;SDS011;63298;53.164;8.610;2023-02-28T09:30:39;1.10;;;1.00;;
74777;SDS011;63298;53.164;8.610;2023-02-28T09:33:05;1.80;;;1.50;;
74777;SDS011;63298;53.164;8.610;2023-02-28T09:35:30;1.05;;;0.80;;
74777;SDS011;63298;53.164;8.610;2023-02-28T09:37:55;1.00;;;0.90;;
74777;SDS011;63298;53.164;8.610;2023-02-28T09:40:22;1.90;;;1.00;;
74777;SDS011;63298;53.164;8.610;2023-02-28T09:42:51;1.17;;;1.17;;
74777;SDS011;63298;53.164;8.610;2023-02-28T09:48:03;1.20;;;1.10;;
74777;SDS011;63298;53.164;8.610;2023-02-28T09:50:41;1.58;;;0.90;;
74777;SDS011;63298;53.164;8.610;2023-02-28T09:53:21;2.38;;;0.70;;
74777;SDS011;63298;53.164;8.610;2023-02-28T09:56:25;1.25;;;0.68;;
74777;SDS011;63298;53.164;8.610;2023-02-28T09:58:54;0.70;;;0.70;;
74777;SDS011;63298;53.164;8.610;2023-02-28T10:06:40;1.77;;;0.60;;
74777;SDS011;63298;53.164;8.610;2023-02-28T10:09:16;2.58;;;0.80;;
74777;SDS011;63298;53.164;8.610;2023-02-28T10:11:44;1.48;;;1.20;;
74777;SDS011;63298;53.164;8.610;2023-02-28T10:14:13;1.90;;;1.38;;
74777;SDS011;63298;53.164;8.610;2023-02-28T10:19:33;6.25;;;1.50;;
74777;SDS011;63298;53.164;8.610;2023-02-28T10:24:49;1.38;;;1.02;;
74777;SDS011;63298;53.164;8.610;2023-02-28T10:27:16;2.47;;;1.10;;
74777;SDS011;63298;53.164;8.610;2023-02-28T10:29:50;2.58;;;1.10;;
74777;SDS011;63298;53.164;8.610;2023-02-28T10:32:25;1.50;;;1.13;;
74777;SDS011;63298;53.164;8.610;2023-02-28T10:34:52;6.68;;;1.30;;
74777;SDS011;63298;53.164;8.610;2023-02-28T10:37:22;4.93;;;1.40;;
74777;SDS011;63298;53.164;8.610;2023-02-28T10:39:47;1.88;;;1.55;;
74777;SDS011;63298;53.164;8.610;2023-02-28T10:42:20;1.70;;;1.30;;
74777;SDS011;63298;53.164;8.610;2023-02-28T10:45:04;4.95;;;1.15;;
74777;SDS011;63298;53.164;8.610;2023-02-28T10:47:51;2.08;;;1.13;;
74777;SDS011;63298;53.164;8.610;2023-02-28T10:53:07;3.03;;;1.20;;
74777;SDS011;63298;53.164;8.610;2023-02-28T10:55:40;3.00;;;0.90;;
74777;SDS011;63298;53.164;8.610;2023-02-28T10:58:22;1.67;;;1.20;;
74777;SDS011;63298;53.164;8.610;2023-02-28T11:00:49;2.25;;;1.00;;
74777;SDS011;63298;53.164;8.610;2023-02-28T11:03:31;2.00;;;1.05;;
74777;SDS011;63298;53.164;8.610;2023-02-28T11:06:04;1.23;;;1.10;;
74777;SDS011;63298;53.164;8.610;2023-02-28T11:08:45;2.25;;;1.02;;
74777;SDS011;63298;53.164;8.610;2023-02-28T11:11:16;3.58;;;1.27;;
74777;SDS011;63298;53.164;8.610;2023-02-28T11:13:43;1.45;;;1.00;;
74777;SDS011;63298;53.164;8.610;2023-02-28T11:16:10;2.58;;;0.98;;
74777;SDS011;63298;53.164;8.610;2023-02-28T11:21:09;1.80;;;0.90;;
74777;SDS011;63298;53.164;8.610;2023-02-28T11:23:41;3.50;;;0.95;;
74777;SDS011;63298;53.164;8.610;2023-02-28T11:26:07;1.65;;;1.10;;
74777;SDS011;63298;53.164;8.610;2023-02-28T11:28:34;1.10;;;0.90;;
74777;SDS011;63298;53.164;8.610;2023-02-28T11:33:46;1.15;;;1.00;;
74777;SDS011;63298;53.164;8.610;2023-02-28T11:36:27;3.03;;;1.20;;
74777;SDS011;63298;53.164;8.610;2023-02-28T11:38:58;4.88;;;1.13;;
74777;SDS011;63298;53.164;8.610;2023-02-28T11:41:47;2.40;;;1.23;;
74777;SDS011;63298;53.164;8.610;2023-02-28T11:44:39;1.38;;;0.80;;
74777;SDS011;63298;53.164;8.610;2023-02-28T11:53:21;2.47;;;1.30;;
74777;SDS011;63298;53.164;8.610;2023-02-28T11:58:49;1.20;;;1.02;;
74777;SDS011;63298;53.164;8.610;2023-02-28T12:07:50;13.77;;;3.08;;
74777;SDS011;63298;53.164;8.610;2023-02-28T12:10:57;4.18;;;1.20;;
74777;SDS011;63298;53.164;8.610;2023-02-28T12:13:31;2.78;;;1.00;;
74777;SDS011;63298;53.164;8.610;2023-02-28T12:21:27;5.65;;;1.50;;
74777;SDS011;63298;53.164;8.610;2023-02-28T12:26:32;0.80;;;0.80;;
74777;SDS011;63298;53.164;8.610;2023-02-28T12:32:33;1.60;;;0.98;;
74777;SDS011;63298;53.164;8.610;2023-02-28T12:34:44;1.30;;;1.20;;
74777;SDS011;63298;53.164;8.610;2023-02-28T12:37:16;2.97;;;0.90;;
74777;SDS011;63298;53.164;8.610;2023-02-28T12:39:46;1.48;;;1.10;;
74777;SDS011;63298;53.164;8.610;2023-02-28T12:42:19;1.38;;;1.00;;
74777;SDS011;63298;53.164;8.610;2023-02-28T12:44:56;1.00;;;0.90;;
74777;SDS011;63298;53.164;8.610;2023-02-28T12:47:25;2.38;;;0.93;;
74777;SDS011;63298;53.164;8.610;2023-02-28T12:49:55;0.83;;;0.83;;
74777;SDS011;63298;53.164;8.610;2023-02-28T13:09:18;0.75;;;0.75;;
74777;SDS011;63298;53.164;8.610;2023-02-28T13:11:45;0.73;;;0.73;;
74777;SDS011;63298;53.164;8.610;2023-02-28T13:14:59;1.15;;;0.80;;
74777;SDS011;63298;53.164;8.610;2023-02-28T13:19:34;3.00;;;1.02;;
74777;SDS011;63298;53.164;8.610;2023-02-28T13:22:05;1.90;;;0.98;;
74777;SDS011;63298;53.164;8.610;2023-02-28T13:25:00;1.35;;;0.90;;
74777;SDS011;63298;53.164;8.610;2023-02-28T13:27:37;1.23;;;0.90;;
74777;SDS011;63298;53.164;8.610;2023-02-28T13:30:58;1.80;;;0.82;;
74777;SDS011;63298;53.164;8.610;2023-02-28T13:35:45;1.38;;;1.10;;
74777;SDS011;63298;53.164;8.610;2023-02-28T13:38:21;1.25;;;0.93;;
74777;SDS011;63298;53.164;8.610;2023-02-28T13:40:48;1.77;;;1.15;;
74777;SDS011;63298;53.164;8.610;2023-02-28T13:43:13;1.35;;;0.90;;
74777;SDS011;63298;53.164;8.610;2023-02-28T13:46:10;1.35;;;0.98;;
74777;SDS011;63298;53.164;8.610;2023-02-28T13:48:33;1.67;;;0.93;;
74777;SDS011;63298;53.164;8.610;2023-02-28T13:50:58;1.90;;;1.00;;
74777;SDS011;63298;53.164;8.610;2023-02-28T13:54:06;1.77;;;0.95;;
74777;SDS011;63298;53.164;8.610;2023-02-28T13:56:31;1.13;;;0.70;;
74777;SDS011;63298;53.164;8.610;2023-02-28T13:59:25;1.40;;;0.80;;
74777;SDS011;63298;53.164;8.610;2023-02-28T14:04:49;0.90;;;0.90;;
74777;SDS011;63298;53.164;8.610;2023-02-28T14:07:25;1.25;;;0.95;;
74777;SDS011;63298;53.164;8.610;2023-02-28T14:09:59;1.75;;;1.00;;
74777;SDS011;63298;53.164;8.610;2023-02-28T14:17:57;3.97;;;0.90;;
74777;SDS011;63298;53.164;8.610;2023-02-28T14:20:27;1.35;;;1.05;;
74777;SDS011;63298;53.164;8.610;2023-02-28T14:28:56;1.77;;;0.88;;
74777;SDS011;63298;53.164;8.610;2023-02-28T14:31:34;2.92;;;0.80;;
74777;SDS011;63298;53.164;8.610;2023-02-28T14:34:25;5.15;;;1.15;;
74777;SDS011;63298;53.164;8.610;2023-02-28T14:37:15;1.13;;;1.02;;
74777;SDS011;63298;53.164;8.610;2023-02-28T14:39:44;1.33;;;1.00;;
74777;SDS011;63298;53.164;8.610;2023-02-28T14:42:31;1.13;;;1.13;;
74777;SDS011;63298;53.164;8.610;2023-02-28T14:44:58;2.10;;;0.98;;
74777;SDS011;63298;53.164;8.610;2023-02-28T14:47:25;3.30;;;0.90;;
74777;SDS011;63298;53.164;8.610;2023-02-28T14:50:00;1.95;;;1.27;;
74777;SDS011;63298;53.164;8.610;2023-02-28T14:52:28;1.10;;;0.93;;
74777;SDS011;63298;53.164;8.610;2023-02-28T14:54:57;1.10;;;1.00;;
74777;SDS011;63298;53.164;8.610;2023-02-28T15:00:07;1.73;;;1.00;;
74777;SDS011;63298;53.164;8.610;2023-02-28T15:02:39;2.08;;;0.90;;
74777;SDS011;63298;53.164;8.610;2023-02-28T15:07:40;1.85;;;1.10;;
74777;SDS011;63298;53.164;8.610;2023-02-28T15:12:34;2.30;;;1.00;;
74777;SDS011;63298;53.164;8.610;2023-02-28T15:15:00;1.88;;;1.13;;
74777;SDS011;63298;53.164;8.610;2023-02-28T15:17:26;6.22;;;1.23;;
74777;SDS011;63298;53.164;8.610;2023-02-28T15:19:52;1.20;;;1.10;;
74777;SDS011;63298;53.164;8.610;2023-02-28T15:22:20;2.65;;;1.17;;
74777;SDS011;63298;53.164;8.610;2023-02-28T15:24:53;1.33;;;0.95;;
74777;SDS011;63298;53.164;8.610;2023-02-28T15:27:20;2.72;;;1.20;;
74777;SDS011;63298;53.164;8.610;2023-02-28T15:29:51;2.17;;;1.00;;
74777;SDS011;63298;53.164;8.610;2023-02-28T15:32:24;1.55;;;1.02;;
74777;SDS011;63298;53.164;8.610;2023-02-28T15:34:50;3.33;;;0.98;;
74777;SDS011;63298;53.164;8.610;2023-02-28T15:40:13;2.17;;;1.05;;
74777;SDS011;63298;53.164;8.610;2023-02-28T15:42:40;1.85;;;1.33;;
74777;SDS011;63298;53.164;8.610;2023-02-28T15:45:06;1.85;;;1.00;;
74777;SDS011;63298;53.164;8.610;2023-02-28T15:47:52;2.90;;;1.52;;
74777;SDS011;63298;53.164;8.610;2023-02-28T15:50:17;1.60;;;1.10;;
74777;SDS011;63298;53.164;8.610;2023-02-28T15:52:43;1.80;;;1.20;;
74777;SDS011;63298;53.164;8.610;2023-02-28T15:55:20;3.38;;;1.25;;
74777;SDS011;63298;53.164;8.610;2023-02-28T15:57:48;1.35;;;1.02;;
74777;SDS011;63298;53.164;8.610;2023-02-28T16:00:22;1.08;;;1.00;;
74777;SDS011;63298;53.164;8.610;2023-02-28T16:02:49;1.27;;;1.17;;
74777;SDS011;63298;53.164;8.610;2023-02-28T16:05:28;1.02;;;1.02;;
74777;SDS011;63298;53.164;8.610;2023-02-28T16:07:56;4.97;;;1.20;;
74777;SDS011;63298;53.164;8.610;2023-02-28T16:10:40;1.02;;;0.98;;
74777;SDS011;63298;53.164;8.610;2023-02-28T16:13:05;4.50;;;1.13;;
74777;SDS011;63298;53.164;8.610;2023-02-28T16:15:33;1.00;;;1.00;;
74777;SDS011;63298;53.164;8.610;2023-02-28T16:18:02;3.70;;;1.45;;
74777;SDS011;63298;53.164;8.610;2023-02-28T16:20:29;1.35;;;0.90;;
74777;SDS011;63298;53.164;8.610;2023-02-28T16:22:55;1.85;;;1.20;;
74777;SDS011;63298;53.164;8.610;2023-02-28T16:25:29;1.27;;;0.90;;
74777;SDS011;63298;53.164;8.610;2023-02-28T16:28:02;2.35;;;1.30;;
74777;SDS011;63298;53.164;8.610;2023-02-28T16:30:28;4.30;;;1.20;;
74777;SDS011;63298;53.164;8.610;2023-02-28T16:32:54;3.25;;;1.00;;
74777;SDS011;63298;53.164;8.610;2023-02-28T16:35:21;1.20;;;1.00;;
74777;SDS011;63298;53.164;8.610;2023-02-28T16:37:47;1.27;;;1.00;;
74777;SDS011;63298;53.164;8.610;2023-02-28T16:40:14;3.00;;;1.00;;
74777;SDS011;63298;53.164;8.610;2023-02-28T16:42:40;2.70;;;1.08;;
74777;SDS011;63298;53.164;8.610;2023-02-28T16:45:10;2.40;;;1.40;;
74777;SDS011;63298;53.164;8.610;2023-02-28T16:47:41;2.33;;;1.23;;
74777;SDS011;63298;53.164;8.610;2023-02-28T16:50:12;3.33;;;1.30;;
74777;SDS011;63298;53.164;8.610;2023-02-28T16:52:40;3.88;;;1.52;;
74777;SDS011;63298;53.164;8.610;2023-02-28T16:55:05;2.22;;;1.50;;
74777;SDS011;63298;53.164;8.610;2023-02-28T16:57:31;1.40;;;1.30;;
74777;SDS011;63298;53.164;8.610;2023-02-28T16:59:56;2.22;;;1.40;;
74777;SDS011;63298;53.164;8.610;2023-02-28T17:02:22;2.25;;;1.10;;
74777;SDS011;63298;53.164;8.610;2023-02-28T17:04:47;2.90;;;1.10;;
74777;SDS011;63298;53.164;8.610;2023-02-28T17:07:13;2.58;;;1.23;;
74777;SDS011;63298;53.164;8.610;2023-02-28T17:09:40;2.22;;;1.40;;
74777;SDS011;63298;53.164;8.610;2023-02-28T17:12:05;2.40;;;1.50;;